Time;durP1;ratioP1;P1;durP2;ratioP2;P2;SDS_P1;SDS_P2;PMS_P1;PMS_P2;Temp;Humidity;BMP_temperature;BMP_pressure;BME280_temperature;BME280_humidity;BME280_pressure;Samples;Min_cycle;Max_cycle;Signal;HPM_P1;HPM_P2
2023/06/25 00:00:09;;;;;;;2.13;2.03;;;;;;;19.03;65.59;95907.19;4347478;32;20227;-57
2023/06/25 00:02:35;;;;;;;1.80;1.70;;;;;;;18.86;66.24;95904.69;4349764;32;20271;-58
2023/06/25 00:05:02;;;;;;;2.10;1.90;;;;;;;18.81;66.24;95905.69;4385524;32;20192;-57
2023/06/25 00:07:27;;;;;;;1.30;1.20;;;;;;;18.64;66.80;95907.75;4353805;32;20251;-58
2023/06/25 00:09:55;;;;;;;3.70;2.17;;;;;;;18.50;67.12;95906.06;4361405;32;20200;-58
2023/06/25 00:12:20;;;;;;;1.63;1.63;;;;;;;18.65;67.24;95912.00;4334205;32;20200;-58
2023/06/25 00:14:48;;;;;;;1.30;1.30;;;;;;;18.38;67.71;95911.41;4367131;32;20223;-58
2023/06/25 00:17:21;;;;;;;1.57;1.57;;;;;;;18.64;68.42;95905.06;4329927;32;20200;-58
2023/06/25 00:19:46;;;;;;;1.93;1.83;;;;;;;18.77;67.62;95894.00;4358120;32;20188;-58
2023/06/25 00:22:12;;;;;;;1.90;1.43;;;;;;;18.81;67.04;95896.81;4349747;32;20237;-58
2023/06/25 00:24:40;;;;;;;1.40;1.30;;;;;;;18.55;66.96;95892.44;4379437;32;20268;-58
2023/06/25 00:27:07;;;;;;;2.17;2.07;;;;;;;18.46;67.52;95894.44;4321966;32;20188;-58
2023/06/25 00:29:34;;;;;;;1.60;1.60;;;;;;;18.31;67.85;95886.94;4353353;32;20291;-57
2023/06/25 00:32:00;;;;;;;5.73;3.00;;;;;;;18.45;67.47;95887.50;4344604;32;20185;-58
2023/06/25 00:34:29;;;;;;;1.33;1.23;;;;;;;18.54;67.51;95884.69;4357622;32;20215;-58
2023/06/25 00:36:57;;;;;;;1.10;1.10;;;;;;;18.39;68.00;95885.31;4350261;32;20207;-58
2023/06/25 00:39:29;;;;;;;1.57;1.47;;;;;;;18.60;68.45;95883.44;4366733;32;20218;-57
2023/06/25 00:42:00;;;;;;;2.33;2.17;;;;;;;18.54;67.44;95890.88;4363457;32;20203;-58
2023/06/25 00:44:29;;;;;;;1.87;1.77;;;;;;;18.54;67.57;95885.50;4332514;32;20252;-58
2023/06/25 00:46:59;;;;;;;2.70;2.50;;;;;;;18.43;67.81;95884.34;4370409;32;20185;-58
2023/06/25 00:49:33;;;;;;;2.17;2.07;;;;;;;18.26;67.88;95879.13;4311026;32;20185;-59
2023/06/25 00:52:08;;;;;;;2.87;1.80;;;;;;;18.33;68.45;95873.19;4339755;32;20181;-58
2023/06/25 00:54:42;;;;;;;1.77;1.67;;;;;;;18.10;68.43;95870.06;4341454;32;20227;-58
2023/06/25 00:57:09;;;;;;;1.57;1.47;;;;;;;18.28;68.21;95860.78;4328966;32;20189;-59
2023/06/25 00:59:43;;;;;;;2.33;2.10;;;;;;;18.70;68.56;95861.53;4358748;32;20180;-58
2023/06/25 01:03:00;;;;;;;1.77;1.77;;;;;;;18.72;66.56;95864.63;4316679;32;20257;-59
2023/06/25 01:05:43;;;;;;;3.00;2.50;;;;;;;18.71;66.38;95859.59;4355657;32;20239;-58
2023/06/25 01:08:10;;;;;;;1.70;1.60;;;;;;;18.31;66.54;95865.47;4352228;32;20198;-57
2023/06/25 01:10:44;;;;;;;1.40;1.40;;;;;;;18.49;67.44;95861.53;4336124;32;20181;-58
2023/06/25 01:13:20;;;;;;;1.53;1.43;;;;;;;18.20;67.01;95864.31;4329416;32;20197;-58
2023/06/25 01:15:50;;;;;;;1.30;1.30;;;;;;;18.22;67.33;95856.69;4354736;32;20238;-58
2023/06/25 01:18:23;;;;;;;0.70;0.70;;;;;;;18.10;67.23;95856.63;4343766;32;20217;-58
2023/06/25 01:20:56;;;;;;;1.60;1.50;;;;;;;18.12;67.73;95846.34;4323461;32;20204;-58
2023/06/25 01:23:29;;;;;;;1.63;1.53;;;;;;;17.81;67.88;95850.22;4345184;32;20223;-58
2023/06/25 01:25:56;;;;;;;1.53;1.50;;;;;;;18.27;68.00;95848.44;4320770;32;20219;-58
2023/06/25 01:28:23;;;;;;;2.30;2.17;;;;;;;18.44;67.62;95842.13;4345985;32;20248;-58
2023/06/25 01:30:52;;;;;;;1.53;1.43;;;;;;;18.42;67.18;95839.78;4318559;32;20254;-58
2023/06/25 01:33:20;;;;;;;2.50;2.33;;;;;;;18.53;66.09;95840.13;4343626;32;20247;-58
2023/06/25 01:35:47;;;;;;;1.53;1.47;;;;;;;18.29;66.32;95838.13;4290516;32;20262;-58
2023/06/25 01:38:14;;;;;;;1.67;1.63;;;;;;;18.53;66.63;95842.81;4377202;32;20204;-58
2023/06/25 01:40:42;;;;;;;2.50;2.30;;;;;;;18.50;65.81;95835.41;4311341;32;20233;-61
2023/06/25 01:43:10;;;;;;;2.60;1.70;;;;;;;18.47;65.39;95831.53;4330155;32;20193;-58
2023/06/25 01:45:36;;;;;;;3.50;1.43;;;;;;;18.33;66.28;95831.00;4343610;32;20201;-58
2023/06/25 01:48:03;;;;;;;1.53;1.53;;;;;;;18.22;66.87;95834.44;4326910;32;20319;-58
2023/06/25 01:50:31;;;;;;;1.23;1.23;;;;;;;18.09;66.40;95826.28;4359770;32;20316;-57
2023/06/25 01:52:58;;;;;;;2.00;1.90;;;;;;;17.91;66.59;95829.44;4335702;32;20259;-57
2023/06/25 01:55:24;;;;;;;1.80;1.70;;;;;;;18.14;66.94;95834.16;4339551;32;20257;-58
2023/06/25 01:57:51;;;;;;;1.80;1.70;;;;;;;18.60;67.29;95828.88;4335125;32;20189;-58
2023/06/25 02:00:24;;;;;;;1.43;1.43;;;;;;;18.72;67.30;95826.22;4335547;32;20234;-58
2023/06/25 02:02:52;;;;;;;1.50;1.40;;;;;;;18.80;65.80;95819.97;4362441;32;20204;-58
2023/06/25 02:05:18;;;;;;;1.67;1.57;;;;;;;18.51;66.32;95821.66;4360079;32;20201;-58
2023/06/25 02:07:46;;;;;;;1.50;1.33;;;;;;;18.55;64.94;95817.19;4349550;32;20203;-58
2023/06/25 02:10:15;;;;;;;0.97;0.97;;;;;;;18.33;64.81;95817.56;4356494;32;20224;-58
2023/06/25 02:12:42;;;;;;;1.47;1.37;;;;;;;18.27;65.52;95813.53;4287097;32;20222;-58
2023/06/25 02:15:08;;;;;;;1.87;1.77;;;;;;;18.06;66.07;95820.81;4351443;32;20200;-61
2023/06/25 02:17:34;;;;;;;1.40;1.40;;;;;;;18.25;66.21;95810.38;4367687;32;20201;-58
2023/06/25 02:20:00;;;;;;;1.87;1.77;;;;;;;18.48;66.12;95816.19;4352439;32;20248;-58
2023/06/25 02:22:26;;;;;;;1.33;1.30;;;;;;;18.37;65.19;95815.00;4362682;32;20189;-57
2023/06/25 02:24:54;;;;;;;1.70;1.60;;;;;;;18.49;66.76;95807.78;4305942;32;20225;-58
2023/06/25 02:27:20;;;;;;;1.73;1.60;;;;;;;18.58;64.87;95817.66;4340649;32;20234;-58
2023/06/25 02:29:47;;;;;;;1.20;1.20;;;;;;;18.67;64.93;95813.00;4330778;32;20197;-58
2023/06/25 02:32:14;;;;;;;1.83;1.73;;;;;;;18.45;64.26;95806.09;4366728;32;20197;-58
2023/06/25 02:34:41;;;;;;;0.90;0.90;;;;;;;18.37;66.59;95813.09;4373883;32;20203;-57
2023/06/25 02:37:17;;;;;;;1.83;1.67;;;;;;;18.68;66.17;95806.53;4376525;32;20185;-58
2023/06/25 02:39:45;;;;;;;1.30;1.30;;;;;;;18.90;66.31;95811.50;4306288;32;20243;-58
2023/06/25 02:42:16;;;;;;;1.57;1.50;;;;;;;18.60;64.49;95802.00;4377212;32;20185;-58
2023/06/25 02:44:42;;;;;;;1.30;1.30;;;;;;;18.06;66.13;95804.72;4348901;32;20215;-58
2023/06/25 02:47:10;;;;;;;1.97;1.87;;;;;;;18.44;66.12;95801.84;4328778;32;20224;-59
2023/06/25 02:49:36;;;;;;;1.07;1.07;;;;;;;18.58;65.14;95809.59;4356380;32;20211;-57
2023/06/25 02:52:04;;;;;;;1.40;1.30;;;;;;;18.23;64.80;95809.13;4351125;32;20272;-57
2023/06/25 02:54:30;;;;;;;1.23;1.23;;;;;;;18.66;67.62;95803.38;4338190;32;20251;-58
2023/06/25 02:56:57;;;;;;;1.20;1.20;;;;;;;18.84;66.73;95812.81;4361716;32;20193;-58
2023/06/25 02:59:26;;;;;;;1.37;1.33;;;;;;;17.50;67.62;95807.59;4363455;32;20192;-58
2023/06/25 03:01:56;;;;;;;1.30;1.20;;;;;;;17.91;69.60;95805.28;4356353;32;20228;-58
2023/06/25 03:04:23;;;;;;;1.70;1.67;;;;;;;18.07;66.95;95817.03;4344410;32;20244;-58
2023/06/25 03:06:50;;;;;;;1.63;1.53;;;;;;;18.08;66.98;95813.97;4366147;32;20244;-58
2023/06/25 03:09:19;;;;;;;1.63;1.53;;;;;;;18.55;68.04;95808.34;4344714;32;20184;-58
2023/06/25 03:11:46;;;;;;;1.17;1.17;;;;;;;18.41;65.34;95816.72;4368420;32;20219;-58
2023/06/25 03:14:13;;;;;;;1.87;1.77;;;;;;;18.75;67.02;95809.44;4355883;32;20250;-58
2023/06/25 03:16:45;;;;;;;1.27;1.27;;;;;;;18.76;64.89;95805.62;4354228;32;20196;-58
2023/06/25 03:19:19;;;;;;;1.30;1.30;;;;;;;18.87;65.66;95801.41;4328651;32;20196;-57
2023/06/25 03:21:45;;;;;;;1.40;1.33;;;;;;;18.76;65.29;95801.03;4336802;32;20299;-57
2023/06/25 03:24:10;;;;;;;1.97;1.70;;;;;;;18.99;64.85;95798.72;4336381;32;20188;-57
2023/06/25 03:26:37;;;;;;;1.57;1.47;;;;;;;19.07;64.62;95800.53;4392352;32;20199;-58
2023/06/25 03:29:03;;;;;;;1.50;1.40;;;;;;;19.22;64.46;95802.53;4355452;32;20212;-57
2023/06/25 03:31:31;;;;;;;1.70;1.60;;;;;;;19.02;62.64;95803.44;4358842;32;20326;-58
2023/06/25 03:33:57;;;;;;;0.57;0.57;;;;;;;19.09;63.44;95798.28;4338153;32;20292;-57
2023/06/25 03:36:25;;;;;;;2.27;2.07;;;;;;;19.02;64.63;95803.44;4372672;32;20180;-58
2023/06/25 03:38:56;;;;;;;1.47;1.47;;;;;;;18.89;62.63;95799.16;4325896;32;20253;-58
2023/06/25 03:41:24;;;;;;;1.67;1.10;;;;;;;19.09;63.71;95809.06;4368909;32;20189;-58
2023/06/25 03:43:51;;;;;;;0.93;0.93;;;;;;;19.10;64.60;95804.47;4336506;32;20193;-58
2023/06/25 03:46:18;;;;;;;1.00;1.00;;;;;;;19.22;63.85;95799.06;4355047;32;20254;-58
2023/06/25 03:48:45;;;;;;;1.90;1.33;;;;;;;19.32;63.69;95803.22;4364871;32;20226;-57
2023/06/25 03:51:11;;;;;;;2.37;1.83;;;;;;;19.10;64.11;95799.06;4356206;32;20197;-58
2023/06/25 03:53:41;;;;;;;2.57;1.60;;;;;;;19.26;64.16;95797.28;4379511;32;20211;-58
2023/06/25 03:56:07;;;;;;;0.80;0.80;;;;;;;18.96;63.03;95799.38;4345825;32;20188;-58
2023/06/25 03:58:34;;;;;;;1.87;1.77;;;;;;;18.78;63.69;95793.41;4374927;32;20188;-58
2023/06/25 04:01:01;;;;;;;1.10;1.10;;;;;;;18.09;65.10;95793.28;4370866;32;20204;-58
2023/06/25 04:03:28;;;;;;;1.50;1.50;;;;;;;18.26;65.10;95789.69;4347131;32;20189;-57
2023/06/25 04:05:57;;;;;;;2.00;1.57;;;;;;;18.62;66.42;95789.03;4374415;32;20264;-58
2023/06/25 04:08:24;;;;;;;1.77;1.67;;;;;;;18.51;64.14;95794.78;4360462;32;20242;-58
2023/06/25 04:10:51;;;;;;;1.57;1.47;;;;;;;18.30;64.36;95787.88;4350401;32;20197;-58
2023/06/25 04:13:19;;;;;;;1.20;1.20;;;;;;;18.07;65.15;95784.81;4349476;32;20236;-58
2023/06/25 04:15:44;;;;;;;1.00;1.00;;;;;;;18.37;67.02;95791.63;4294912;32;20236;-58
2023/06/25 04:18:09;;;;;;;1.90;1.80;;;;;;;18.48;66.64;95779.34;4353830;32;20224;-58
2023/06/25 04:20:37;;;;;;;1.93;1.83;;;;;;;18.78;65.85;95787.25;4331876;32;20251;-57
2023/06/25 04:23:02;;;;;;;1.67;1.57;;;;;;;18.95;65.62;95778.97;4349419;32;20228;-58
2023/06/25 04:25:31;;;;;;;1.40;1.40;;;;;;;19.19;65.52;95786.28;4343799;32;20295;-57
2023/06/25 04:27:58;;;;;;;1.07;1.07;;;;;;;19.11;63.99;95784.50;4340141;32;20271;-58
2023/06/25 04:30:25;;;;;;;1.37;1.37;;;;;;;19.07;64.20;95787.09;4356474;32;20197;-58
2023/06/25 04:32:54;;;;;;;5.33;2.03;;;;;;;18.61;64.11;95787.47;4337783;32;20182;-59
2023/06/25 04:35:22;;;;;;;1.57;1.47;;;;;;;19.11;65.94;95779.13;4347197;32;20205;-58
2023/06/25 04:37:49;;;;;;;1.40;1.30;;;;;;;19.00;63.94;95781.47;4325711;32;20199;-58
2023/06/25 04:40:17;;;;;;;1.33;1.23;;;;;;;18.44;64.15;95785.72;4321817;32;20193;-59
2023/06/25 04:42:43;;;;;;;3.07;1.63;;;;;;;18.37;65.61;95782.75;4297122;32;20197;-57
2023/06/25 04:45:11;;;;;;;1.10;1.10;;;;;;;18.26;65.66;95789.69;4372669;32;20188;-58
2023/06/25 04:47:40;;;;;;;1.07;1.07;;;;;;;18.74;67.21;95781.75;4333669;32;20199;-58
2023/06/25 04:50:14;;;;;;;1.17;1.17;;;;;;;18.27;65.25;95775.94;4335464;32;20185;-58
2023/06/25 04:52:43;;;;;;;1.10;1.10;;;;;;;18.15;65.44;95781.22;4333560;32;20189;-58
2023/06/25 04:55:10;;;;;;;1.50;1.50;;;;;;;18.52;67.43;95777.53;4311513;32;20203;-59
2023/06/25 04:57:47;;;;;;;1.07;1.07;;;;;;;18.59;64.65;95785.09;4320736;32;20185;-59
2023/06/25 05:00:15;;;;;;;4.57;1.77;;;;;;;18.31;67.89;95779.50;4316582;32;20197;-57
2023/06/25 05:02:43;;;;;;;0.97;0.97;;;;;;;18.17;65.81;95773.63;4332457;32;20243;-58
2023/06/25 05:05:09;;;;;;;1.20;1.20;;;;;;;17.94;65.97;95775.09;4363792;32;20196;-58
2023/06/25 05:07:36;;;;;;;1.80;1.70;;;;;;;17.99;66.56;95772.22;4369366;32;20230;-58
2023/06/25 05:10:04;;;;;;;1.27;1.27;;;;;;;17.76;66.36;95783.28;4350368;32;20197;-58
2023/06/25 05:12:31;;;;;;;1.07;1.07;;;;;;;17.69;66.45;95774.97;4342764;32;20237;-58
2023/06/25 05:14:58;;;;;;;1.17;1.17;;;;;;;17.94;66.20;95778.56;4356072;32;20227;-57
2023/06/25 05:17:26;;;;;;;2.07;1.97;;;;;;;17.63;66.76;95789.69;4350864;32;20189;-58
2023/06/25 05:19:53;;;;;;;0.97;0.97;;;;;;;17.95;66.71;95779.34;4328058;32;20195;-58
2023/06/25 05:22:19;;;;;;;1.43;1.37;;;;;;;18.43;67.83;95782.25;4356267;32;20192;-59
2023/06/25 05:24:45;;;;;;;1.27;1.23;;;;;;;18.21;65.73;95782.59;4310565;32;20243;-57
2023/06/25 05:27:10;;;;;;;1.93;1.83;;;;;;;18.25;65.38;95786.22;4359828;32;20225;-58
2023/06/25 05:29:36;;;;;;;1.70;1.60;;;;;;;18.09;65.62;95785.22;4343686;32;20201;-58
2023/06/25 05:32:05;;;;;;;1.13;1.13;;;;;;;17.99;65.46;95781.06;4353690;32;20292;-58
2023/06/25 05:34:32;;;;;;;1.20;1.20;;;;;;;18.20;65.42;95786.41;4341098;32;20333;-59
2023/06/25 05:36:59;;;;;;;1.27;1.17;;;;;;;18.35;64.51;95785.78;4316316;32;20212;-59
2023/06/25 05:39:28;;;;;;;1.73;1.63;;;;;;;18.45;63.64;95785.37;4355189;32;20259;-58
2023/06/25 05:41:58;;;;;;;1.13;1.13;;;;;;;18.66;63.86;95779.19;4356592;32;20181;-58
2023/06/25 05:44:25;;;;;;;1.17;1.17;;;;;;;18.58;63.42;95786.19;4314668;32;20258;-58
2023/06/25 05:46:55;;;;;;;1.80;1.27;;;;;;;18.73;64.16;95784.78;4341541;32;20196;-58
2023/06/25 05:49:21;;;;;;;1.43;1.20;;;;;;;18.76;64.12;95786.81;4367124;32;20181;-58
2023/06/25 05:51:47;;;;;;;0.67;0.67;;;;;;;18.90;65.42;95783.81;4357470;32;20196;-58
2023/06/25 05:54:14;;;;;;;0.87;0.87;;;;;;;18.71;65.97;95784.31;4302334;32;20251;-59
2023/06/25 05:56:39;;;;;;;7.27;1.43;;;;;;;18.62;64.54;95783.66;4304147;32;20208;-58
2023/06/25 05:59:05;;;;;;;1.47;1.37;;;;;;;18.51;65.36;95781.34;4349168;32;20189;-57
2023/06/25 06:01:31;;;;;;;1.53;1.47;;;;;;;18.77;66.04;95783.00;4331672;32;20240;-58
2023/06/25 06:03:58;;;;;;;1.43;0.83;;;;;;;18.45;64.31;95780.00;4353483;32;20215;-57
2023/06/25 06:06:26;;;;;;;1.53;1.43;;;;;;;18.70;65.64;95785.47;4340025;32;20242;-58
2023/06/25 06:08:52;;;;;;;2.00;1.87;;;;;;;19.01;65.90;95791.09;4356621;32;20249;-59
2023/06/25 06:11:19;;;;;;;1.30;1.00;;;;;;;18.70;64.91;95788.94;4340899;32;20201;-58
2023/06/25 06:13:45;;;;;;;1.07;1.07;;;;;;;19.04;65.83;95787.75;4363378;32;20177;-58
2023/06/25 06:16:11;;;;;;;0.87;0.87;;;;;;;18.95;65.54;95784.38;4337090;32;20193;-58
2023/06/25 06:18:36;;;;;;;0.73;0.73;;;;;;;18.93;63.48;95777.75;4368946;32;20204;-58
2023/06/25 06:21:03;;;;;;;2.43;1.57;;;;;;;18.93;64.60;95786.59;4347418;32;20212;-58
2023/06/25 06:23:30;;;;;;;1.07;1.07;;;;;;;19.16;64.49;95778.87;4303484;32;20360;-58
2023/06/25 06:25:58;;;;;;;1.07;1.07;;;;;;;19.37;64.34;95781.44;4345883;32;20184;-58
2023/06/25 06:28:25;;;;;;;1.50;1.47;;;;;;;19.42;63.49;95773.16;4366966;32;20216;-57
2023/06/25 06:30:51;;;;;;;1.27;1.10;;;;;;;19.41;61.16;95769.69;4368299;32;20256;-58
2023/06/25 06:33:16;;;;;;;0.80;0.80;;;;;;;19.58;61.64;95765.19;4366621;32;20222;-58
2023/06/25 06:35:41;;;;;;;1.37;1.10;;;;;;;19.74;59.76;95766.09;4356241;32;20223;-61
2023/06/25 06:38:08;;;;;;;0.80;0.80;;;;;;;19.89;60.94;95765.34;4360086;32;20215;-58
2023/06/25 06:40:38;;;;;;;1.07;1.07;;;;;;;20.00;61.37;95760.25;4340913;32;20323;-58
2023/06/25 06:43:06;;;;;;;1.10;1.10;;;;;;;19.99;61.78;95761.38;4305248;32;20182;-58
2023/06/25 06:45:34;;;;;;;1.40;1.40;;;;;;;19.99;59.02;95754.09;4335759;32;20195;-57
2023/06/25 06:48:02;;;;;;;0.97;0.90;;;;;;;20.16;57.86;95753.03;4363090;32;20246;-57
2023/06/25 06:50:29;;;;;;;0.83;0.83;;;;;;;20.29;58.29;95770.69;4361234;32;20218;-58
2023/06/25 06:52:55;;;;;;;2.13;1.80;;;;;;;20.29;59.81;95762.63;4370834;32;20181;-58
2023/06/25 06:55:23;;;;;;;0.70;0.70;;;;;;;20.30;58.27;95758.78;4368046;32;20210;-58
2023/06/25 06:57:48;;;;;;;1.50;1.40;;;;;;;20.47;58.97;95757.72;4366886;32;20195;-58
2023/06/25 07:00:18;;;;;;;2.83;1.33;;;;;;;20.61;58.86;95750.00;4386906;32;20193;-58
2023/06/25 07:02:45;;;;;;;0.80;0.80;;;;;;;20.64;56.89;95751.22;4365866;32;20192;-58
2023/06/25 07:05:13;;;;;;;0.90;0.90;;;;;;;20.82;57.89;95752.44;4376426;32;20188;-58
2023/06/25 07:07:44;;;;;;;1.17;1.17;;;;;;;20.78;57.75;95759.69;4358885;32;20185;-58
2023/06/25 07:10:11;;;;;;;1.23;1.23;;;;;;;20.91;57.74;95750.34;4367514;32;20202;-58
2023/06/25 07:12:38;;;;;;;1.13;1.13;;;;;;;20.95;58.39;95748.53;4324406;32;20216;-58
2023/06/25 07:15:09;;;;;;;1.23;1.23;;;;;;;21.08;55.44;95744.59;4361324;32;20238;-58
2023/06/25 07:17:37;;;;;;;1.03;1.00;;;;;;;21.15;55.99;95744.00;4316671;32;20189;-58
2023/06/25 07:20:10;;;;;;;0.70;0.70;;;;;;;21.24;55.19;95728.41;4340873;32;20300;-56
2023/06/25 07:22:39;;;;;;;1.13;0.93;;;;;;;21.36;56.99;95739.13;4324950;32;20219;-58
2023/06/25 07:25:19;;;;;;;1.00;1.00;;;;;;;21.39;54.28;95732.22;4338003;32;20189;-58
2023/06/25 07:27:47;;;;;;;1.07;1.00;;;;;;;21.42;54.45;95742.31;4334389;32;20247;-58
2023/06/25 07:30:15;;;;;;;5.03;3.53;;;;;;;21.55;54.78;95735.66;4347721;32;20200;-59
2023/06/25 07:32:41;;;;;;;1.73;1.60;;;;;;;21.55;54.17;95736.44;4315528;32;20193;-58
2023/06/25 07:35:18;;;;;;;1.07;1.07;;;;;;;21.63;54.83;95729.25;4363357;32;20207;-58
2023/06/25 07:37:44;;;;;;;0.90;0.90;;;;;;;21.72;53.36;95734.47;4344490;32;20248;-58
2023/06/25 07:40:13;;;;;;;1.37;1.03;;;;;;;21.87;53.26;95728.22;4345368;32;20193;-58
2023/06/25 07:42:38;;;;;;;0.67;0.67;;;;;;;21.99;52.12;95741.59;4308230;32;20220;-59
2023/06/25 07:45:06;;;;;;;1.37;1.37;;;;;;;21.85;53.50;95739.38;4346910;32;20231;-57
2023/06/25 07:47:33;;;;;;;2.47;1.77;;;;;;;21.91;53.35;95734.47;4260399;32;20284;-57
2023/06/25 07:49:59;;;;;;;2.70;1.20;;;;;;;22.01;51.88;95727.75;4239494;32;20250;-58
2023/06/25 07:52:34;;;;;;;2.00;1.83;;;;;;;22.05;52.72;95732.09;4257633;32;20243;-58
2023/06/25 07:55:02;;;;;;;2.10;1.27;;;;;;;22.15;51.34;95733.44;4242088;32;20292;-59
2023/06/25 07:57:28;;;;;;;0.40;0.40;;;;;;;22.12;50.86;95732.22;4286651;32;20251;-58
2023/06/25 08:00:01;;;;;;;0.70;0.70;;;;;;;22.20;51.62;95731.25;4360226;32;20224;-58
2023/06/25 08:02:32;;;;;;;0.93;0.93;;;;;;;22.23;52.61;95724.34;4337244;32;20212;-59
2023/06/25 08:04:59;;;;;;;0.60;0.60;;;;;;;22.31;50.65;95723.31;4323823;32;20200;-59
2023/06/25 08:07:27;;;;;;;0.77;0.77;;;;;;;22.36;51.33;95731.13;4368854;32;20195;-58
2023/06/25 08:10:04;;;;;;;1.00;1.00;;;;;;;22.41;50.23;95728.16;4339151;32;20319;-58
2023/06/25 08:12:31;;;;;;;1.77;1.67;;;;;;;22.45;51.37;95717.37;4327457;32;20304;-59
2023/06/25 08:15:00;;;;;;;0.97;0.97;;;;;;;22.53;51.73;95719.06;4356679;32;20249;-58
2023/06/25 08:17:27;;;;;;;1.00;1.00;;;;;;;22.54;51.26;95716.00;4367503;32;20208;-58
2023/06/25 08:19:53;;;;;;;3.53;2.80;;;;;;;22.60;49.68;95714.56;4351905;32;20290;-59
2023/06/25 08:22:23;;;;;;;1.63;1.53;;;;;;;22.61;51.01;95713.44;4331726;32;20193;-59
2023/06/25 08:24:53;;;;;;;1.10;1.10;;;;;;;22.73;50.46;95707.03;4363208;32;20208;-58
2023/06/25 08:27:21;;;;;;;1.60;1.03;;;;;;;22.69;49.84;95714.31;4341464;32;20260;-58
2023/06/25 08:29:46;;;;;;;0.80;0.80;;;;;;;22.78;48.54;95714.12;4338667;32;20188;-58
2023/06/25 08:32:11;;;;;;;1.53;1.47;;;;;;;22.81;49.32;95713.41;4354934;32;20322;-59
2023/06/25 08:34:44;;;;;;;1.20;1.10;;;;;;;22.70;50.01;95705.06;4358917;32;20214;-59
2023/06/25 08:37:11;;;;;;;1.90;1.80;;;;;;;22.77;49.09;95710.63;4337850;32;20204;-59
2023/06/25 08:39:38;;;;;;;0.80;0.80;;;;;;;22.91;48.33;95715.47;4353812;32;20252;-58
2023/06/25 08:42:05;;;;;;;1.87;1.70;;;;;;;22.93;48.81;95721.31;4330959;32;20204;-58
2023/06/25 08:44:33;;;;;;;0.90;0.90;;;;;;;22.95;48.72;95713.62;4349149;32;20208;-59
2023/06/25 08:47:01;;;;;;;3.53;1.57;;;;;;;22.83;50.15;95711.91;4356414;32;20284;-58
2023/06/25 08:49:29;;;;;;;0.77;0.77;;;;;;;22.95;47.92;95705.50;4317148;32;20216;-58
2023/06/25 08:51:59;;;;;;;0.70;0.70;;;;;;;22.84;48.21;95718.88;4340997;32;20205;-58
2023/06/25 08:54:26;;;;;;;2.83;1.70;;;;;;;22.89;47.41;95715.84;4350387;32;20193;-58
2023/06/25 08:56:51;;;;;;;1.10;1.10;;;;;;;22.99;46.97;95714.47;4347007;32;20189;-59
2023/06/25 08:59:22;;;;;;;1.63;1.53;;;;;;;23.20;45.63;95712.06;4370103;32;20292;-58
2023/06/25 09:01:51;;;;;;;1.23;1.13;;;;;;;23.40;44.47;95704.63;4350016;32;20200;-58
2023/06/25 09:04:17;;;;;;;2.20;1.17;;;;;;;23.40;44.93;95712.75;4379570;32;20259;-59
2023/06/25 09:06:45;;;;;;;0.93;0.93;;;;;;;23.40;44.89;95699.19;4375402;32;20220;-58
2023/06/25 09:09:12;;;;;;;1.13;1.13;;;;;;;23.43;43.49;95703.91;4368088;32;20236;-58
2023/06/25 09:11:41;;;;;;;0.97;0.97;;;;;;;23.66;41.78;95698.44;4350960;32;20207;-59
2023/06/25 09:14:08;;;;;;;0.70;0.70;;;;;;;23.61;42.09;95707.66;4376090;32;20192;-59
2023/06/25 09:16:58;;;;;;;0.50;0.50;;;;;;;23.56;40.06;95694.41;4348290;32;20189;-58
2023/06/25 09:19:23;;;;;;;1.37;1.37;;;;;;;23.60;40.63;95702.59;4374222;32;20227;-58
2023/06/25 09:21:50;;;;;;;1.17;1.13;;;;;;;23.62;39.51;95709.22;4335719;32;20197;-57
2023/06/25 09:24:31;;;;;;;1.10;1.10;;;;;;;23.55;40.66;95711.03;4350015;32;20177;-58
2023/06/25 09:26:56;;;;;;;0.77;0.77;;;;;;;23.73;40.02;95703.13;4377259;32;20192;-58
2023/06/25 09:29:23;;;;;;;1.10;1.10;;;;;;;23.72;41.16;95710.47;4338427;32;20185;-58
2023/06/25 09:31:50;;;;;;;0.90;0.90;;;;;;;23.58;41.39;95704.88;4355225;32;20219;-58
2023/06/25 09:34:26;;;;;;;1.80;1.70;;;;;;;23.57;42.14;95700.63;4371706;32;20196;-58
2023/06/25 09:37:00;;;;;;;0.90;0.90;;;;;;;23.73;40.76;95698.50;4385444;32;20189;-59
2023/06/25 09:39:29;;;;;;;0.80;0.80;;;;;;;23.80;41.30;95698.59;4359202;32;20232;-59
2023/06/25 09:41:54;;;;;;;0.57;0.57;;;;;;;23.83;41.31;95695.16;4344978;32;20204;-58
2023/06/25 09:44:28;;;;;;;2.43;2.13;;;;;;;23.84;42.11;95687.78;4380020;32;20191;-58
2023/06/25 09:47:01;;;;;;;1.00;1.00;;;;;;;23.90;41.61;95680.91;4324918;32;20278;-58
2023/06/25 09:49:31;;;;;;;0.93;0.63;;;;;;;24.13;40.11;95688.88;4339537;32;20294;-58
2023/06/25 09:52:22;;;;;;;1.10;1.10;;;;;;;23.96;39.39;95688.31;4331879;32;20230;-58
2023/06/25 09:54:50;;;;;;;1.73;1.63;;;;;;;23.94;41.13;95689.84;4344756;32;20184;-59
2023/06/25 09:57:29;;;;;;;1.53;1.43;;;;;;;23.85;40.75;95689.34;4332123;32;20379;-58
2023/06/25 10:00:00;;;;;;;0.80;0.80;;;;;;;23.91;40.51;95685.94;4364187;32;20188;-58
2023/06/25 10:02:28;;;;;;;1.43;1.33;;;;;;;23.95;40.76;95681.34;4337854;32;20189;-58
2023/06/25 10:05:00;;;;;;;1.37;1.30;;;;;;;24.06;40.61;95673.34;4394575;32;20272;-58
2023/06/25 10:07:26;;;;;;;0.77;0.77;;;;;;;24.14;40.64;95679.59;4329465;32;20188;-59
2023/06/25 10:09:55;;;;;;;1.20;1.20;;;;;;;24.07;40.71;95674.91;4341441;32;20195;-58
2023/06/25 10:12:23;;;;;;;0.90;0.90;;;;;;;24.36;40.25;95669.78;4341853;32;20208;-59
2023/06/25 10:14:49;;;;;;;1.27;1.27;;;;;;;24.30;39.06;95667.44;4373674;32;20188;-59
2023/06/25 10:17:22;;;;;;;0.73;0.73;;;;;;;24.36;39.04;95669.78;4364795;32;20184;-58
2023/06/25 10:19:52;;;;;;;0.70;0.70;;;;;;;24.37;38.47;95682.19;4351305;32;20196;-59
2023/06/25 10:22:23;;;;;;;0.80;0.80;;;;;;;24.54;38.23;95666.06;4352537;32;20189;-57
2023/06/25 10:24:51;;;;;;;1.67;1.57;;;;;;;24.31;38.07;95663.56;4343640;32;20214;-58
2023/06/25 10:27:30;;;;;;;1.33;1.33;;;;;;;24.24;38.60;95670.84;4365429;32;20197;-59
2023/06/25 10:30:10;;;;;;;2.13;2.03;;;;;;;24.43;39.54;95662.50;4328269;32;20224;-59
2023/06/25 10:33:02;;;;;;;1.70;1.60;;;;;;;24.53;37.58;95659.09;4310027;32;20211;-58
2023/06/25 10:35:41;;;;;;;1.10;1.10;;;;;;;24.48;38.42;95654.03;4388545;32;20196;-58
2023/06/25 10:38:12;;;;;;;1.23;1.13;;;;;;;24.36;38.99;95659.72;4373195;32;20274;-58
2023/06/25 10:40:42;;;;;;;1.50;1.33;;;;;;;24.46;38.64;95661.75;4324263;32;20217;-58
2023/06/25 10:43:11;;;;;;;4.23;1.80;;;;;;;24.41;39.87;95656.66;4350374;32;20194;-59
2023/06/25 10:45:37;;;;;;;1.57;1.47;;;;;;;24.32;40.42;95656.94;4371153;32;20188;-58
2023/06/25 10:48:13;;;;;;;1.80;1.70;;;;;;;24.76;37.61;95649.97;4372337;32;20206;-58
2023/06/25 10:50:42;;;;;;;1.13;1.13;;;;;;;24.93;37.79;95655.53;4348130;32;20188;-59
2023/06/25 10:53:15;;;;;;;1.27;1.27;;;;;;;25.07;37.47;95657.59;4321689;32;20189;-58
2023/06/25 10:55:48;;;;;;;1.40;1.40;;;;;;;25.02;37.61;95654.44;4368278;32;20242;-58
2023/06/25 10:58:24;;;;;;;1.10;1.10;;;;;;;25.00;37.04;95654.81;4363796;32;20302;-57
2023/06/25 11:00:59;;;;;;;1.27;1.27;;;;;;;24.67;37.89;95642.94;4339582;32;20176;-58
2023/06/25 11:03:25;;;;;;;1.27;1.27;;;;;;;24.82;37.32;95645.75;4351186;32;20200;-58
2023/06/25 11:05:53;;;;;;;1.50;1.40;;;;;;;24.94;37.74;95648.19;4353560;32;20193;-58
2023/06/25 11:08:24;;;;;;;1.80;1.70;;;;;;;24.91;38.41;95638.06;4350853;32;20205;-57
2023/06/25 11:10:52;;;;;;;0.97;0.97;;;;;;;24.90;38.96;95641.94;4368491;32;20192;-58
2023/06/25 11:13:39;;;;;;;1.10;0.97;;;;;;;24.84;39.73;95640.72;4348136;32;20217;-58
2023/06/25 11:16:11;;;;;;;1.47;1.37;;;;;;;24.73;39.76;95637.94;4327135;32;20209;-58
2023/06/25 11:18:38;;;;;;;0.80;0.80;;;;;;;24.78;38.91;95640.28;4353161;32;20192;-58
2023/06/25 11:21:08;;;;;;;1.60;1.50;;;;;;;24.91;38.80;95646.22;4319056;32;20360;-58
2023/06/25 11:23:36;;;;;;;1.17;1.17;;;;;;;24.96;39.14;95635.78;4330545;32;20182;-58
2023/06/25 11:26:05;;;;;;;1.00;1.00;;;;;;;25.19;38.66;95624.69;4360990;32;20280;-58
2023/06/25 11:28:45;;;;;;;1.80;1.70;;;;;;;25.00;40.18;95622.25;4366201;32;20193;-58
2023/06/25 11:34:36;;;;;;;1.60;1.50;;;;;;;24.93;39.78;95620.25;4374671;32;20225;-58
2023/06/25 11:37:14;;;;;;;0.80;0.80;;;;;;;24.98;38.10;95627.28;4358582;32;20237;-58
2023/06/25 11:39:50;;;;;;;1.30;1.30;;;;;;;24.90;39.29;95634.56;4333924;32;20196;-60
2023/06/25 11:42:24;;;;;;;0.80;0.80;;;;;;;24.87;38.52;95634.56;4337603;32;20257;-58
2023/06/25 11:45:07;;;;;;;1.90;1.80;;;;;;;24.96;38.07;95618.72;4322888;32;20231;-58